sensor_id;sensor_type;location;lat;lon;timestamp;P1;durP1;ratioP1;P2;durP2;ratioP2
1164;SDS011;571;50.930;6.926;2023-01-05T04:00:12;25.50;;;6.60;;
1164;SDS011;571;50.930;6.926;2023-01-05T04:02:40;12.77;;;4.57;;
1164;SDS011;571;50.930;6.926;2023-01-05T04:05:07;14.63;;;4.50;;
1164;SDS011;571;50.930;6.926;2023-01-05T04:07:34;13.33;;;5.17;;
1164;SDS011;571;50.930;6.926;2023-01-05T04:10:00;19.17;;;4.03;;
1164;SDS011;571;50.930;6.926;2023-01-05T04:12:27;13.40;;;4.27;;
1164;SDS011;571;50.930;6.926;2023-01-05T04:14:54;10.30;;;3.23;;
1164;SDS011;571;50.930;6.926;2023-01-05T04:17:22;15.17;;;4.60;;
1164;SDS011;571;50.930;6.926;2023-01-05T04:19:48;21.60;;;4.50;;
1164;SDS011;571;50.930;6.926;2023-01-05T04:22:15;10.43;;;3.83;;
1164;SDS011;571;50.930;6.926;2023-01-05T04:24:42;6.90;;;2.40;;
1164;SDS011;571;50.930;6.926;2023-01-05T04:27:08;11.60;;;4.50;;
1164;SDS011;571;50.930;6.926;2023-01-05T04:29:35;18.00;;;5.50;;
1164;SDS011;571;50.930;6.926;2023-01-05T04:32:02;14.43;;;5.10;;
1164;SDS011;571;50.930;6.926;2023-01-05T04:34:30;16.33;;;4.30;;
1164;SDS011;571;50.930;6.926;2023-01-05T04:36:57;18.43;;;4.57;;
1164;SDS011;571;50.930;6.926;2023-01-05T04:39:23;23.60;;;5.03;;
1164;SDS011;571;50.930;6.926;2023-01-05T04:41:50;16.63;;;4.10;;
1164;SDS011;571;50.930;6.926;2023-01-05T04:44:17;25.60;;;4.77;;
1164;SDS011;571;50.930;6.926;2023-01-05T04:46:43;11.97;;;4.70;;
1164;SDS011;571;50.930;6.926;2023-01-05T04:49:10;15.03;;;4.03;;
1164;SDS011;571;50.930;6.926;2023-01-05T04:51:38;18.50;;;4.73;;
1164;SDS011;571;50.930;6.926;2023-01-05T04:54:05;5.03;;;2.10;;
1164;SDS011;571;50.930;6.926;2023-01-05T04:56:32;11.70;;;3.83;;
1164;SDS011;571;50.930;6.926;2023-01-05T04:58:58;13.70;;;4.67;;
1164;SDS011;571;50.930;6.926;2023-01-05T05:01:25;27.07;;;6.10;;
1164;SDS011;571;50.930;6.926;2023-01-05T05:03:52;17.90;;;4.40;;
1164;SDS011;571;50.930;6.926;2023-01-05T05:06:19;9.93;;;4.70;;
1164;SDS011;571;50.930;6.926;2023-01-05T05:08:47;21.17;;;5.40;;
1164;SDS011;571;50.930;6.926;2023-01-05T05:11:13;17.60;;;4.50;;
1164;SDS011;571;50.930;6.926;2023-01-05T05:13:40;19.53;;;4.70;;
1164;SDS011;571;50.930;6.926;2023-01-05T05:16:07;17.73;;;4.33;;
1164;SDS011;571;50.930;6.926;2023-01-05T05:18:34;17.33;;;4.37;;
1164;SDS011;571;50.930;6.926;2023-01-05T05:21:01;22.30;;;6.00;;
1164;SDS011;571;50.930;6.926;2023-01-05T05:23:27;9.60;;;3.93;;
1164;SDS011;571;50.930;6.926;2023-01-05T05:25:56;17.63;;;5.00;;
1164;SDS011;571;50.930;6.926;2023-01-05T05:28:22;17.70;;;5.13;;
1164;SDS011;571;50.930;6.926;2023-01-05T05:30:52;9.57;;;3.60;;
1164;SDS011;571;50.930;6.926;2023-01-05T05:33:19;16.10;;;4.33;;
1164;SDS011;571;50.930;6.926;2023-01-05T05:35:46;19.33;;;5.43;;
1164;SDS011;571;50.930;6.926;2023-01-05T05:38:13;15.97;;;4.73;;
1164;SDS011;571;50.930;6.926;2023-01-05T05:40:40;14.23;;;4.57;;
1164;SDS011;571;50.930;6.926;2023-01-05T05:43:08;17.97;;;6.20;;
1164;SDS011;571;50.930;6.926;2023-01-05T05:45:34;16.43;;;5.73;;
1164;SDS011;571;50.930;6.926;2023-01-05T05:48:01;17.90;;;5.07;;
1164;SDS011;571;50.930;6.926;2023-01-05T05:50:29;14.47;;;4.50;;
1164;SDS011;571;50.930;6.926;2023-01-05T05:52:56;14.20;;;4.37;;
1164;SDS011;571;50.930;6.926;2023-01-05T05:55:23;19.23;;;5.37;;
1164;SDS011;571;50.930;6.926;2023-01-05T05:57:49;11.97;;;4.07;;
1164;SDS011;571;50.930;6.926;2023-01-05T06:00:17;18.60;;;6.13;;
1164;SDS011;571;50.930;6.926;2023-01-05T06:02:44;15.87;;;4.50;;
1164;SDS011;571;50.930;6.926;2023-01-05T06:05:11;14.50;;;5.07;;
1164;SDS011;571;50.930;6.926;2023-01-05T06:07:38;23.53;;;4.73;;
1164;SDS011;571;50.930;6.926;2023-01-05T06:10:05;17.10;;;5.20;;
1164;SDS011;571;50.930;6.926;2023-01-05T06:12:32;19.77;;;6.30;;
1164;SDS011;571;50.930;6.926;2023-01-05T06:14:59;17.40;;;5.27;;
1164;SDS011;571;50.930;6.926;2023-01-05T06:17:27;24.30;;;5.70;;
1164;SDS011;571;50.930;6.926;2023-01-05T06:19:54;11.40;;;4.80;;
1164;SDS011;571;50.930;6.926;2023-01-05T06:22:20;17.90;;;5.00;;
1164;SDS011;571;50.930;6.926;2023-01-05T06:24:47;10.60;;;4.37;;
1164;SDS011;571;50.930;6.926;2023-01-05T06:27:14;22.10;;;6.27;;
1164;SDS011;571;50.930;6.926;2023-01-05T06:29:41;21.87;;;6.33;;
1164;SDS011;571;50.930;6.926;2023-01-05T06:32:07;23.93;;;5.10;;
1164;SDS011;571;50.930;6.926;2023-01-05T06:34:35;15.03;;;4.70;;
1164;SDS011;571;50.930;6.926;2023-01-05T06:37:02;15.97;;;4.60;;
1164;SDS011;571;50.930;6.926;2023-01-05T06:39:30;11.97;;;5.33;;
1164;SDS011;571;50.930;6.926;2023-01-05T06:41:57;17.70;;;5.73;;
1164;SDS011;571;50.930;6.926;2023-01-05T06:44:23;21.43;;;5.10;;
1164;SDS011;571;50.930;6.926;2023-01-05T06:46:50;17.53;;;5.67;;
1164;SDS011;571;50.930;6.926;2023-01-05T06:49:17;25.13;;;6.47;;
1164;SDS011;571;50.930;6.926;2023-01-05T06:51:45;25.20;;;6.23;;
1164;SDS011;571;50.930;6.926;2023-01-05T06:54:12;24.00;;;6.20;;
1164;SDS011;571;50.930;6.926;2023-01-05T06:56:39;20.93;;;5.30;;
1164;SDS011;571;50.930;6.926;2023-01-05T06:59:05;17.90;;;4.03;;
1164;SDS011;571;50.930;6.926;2023-01-05T07:01:32;21.20;;;6.00;;
1164;SDS011;571;50.930;6.926;2023-01-05T07:03:59;17.77;;;5.07;;
1164;SDS011;571;50.930;6.926;2023-01-05T07:06:25;15.50;;;5.87;;
1164;SDS011;571;50.930;6.926;2023-01-05T07:08:53;17.20;;;4.30;;
1164;SDS011;571;50.930;6.926;2023-01-05T07:11:20;17.30;;;4.90;;
1164;SDS011;571;50.930;6.926;2023-01-05T07:13:47;14.60;;;5.60;;
1164;SDS011;571;50.930;6.926;2023-01-05T07:16:14;16.53;;;4.47;;
1164;SDS011;571;50.930;6.926;2023-01-05T07:18:41;15.00;;;4.87;;
1164;SDS011;571;50.930;6.926;2023-01-05T07:21:08;16.03;;;4.77;;
1164;SDS011;571;50.930;6.926;2023-01-05T07:23:35;16.23;;;4.73;;
1164;SDS011;571;50.930;6.926;2023-01-05T07:26:04;20.43;;;5.30;;
1164;SDS011;571;50.930;6.926;2023-01-05T07:28:32;8.17;;;3.80;;
1164;SDS011;571;50.930;6.926;2023-01-05T07:30:59;21.40;;;7.60;;
1164;SDS011;571;50.930;6.926;2023-01-05T07:33:25;14.60;;;4.87;;
1164;SDS011;571;50.930;6.926;2023-01-05T07:35:52;24.60;;;6.43;;
1164;SDS011;571;50.930;6.926;2023-01-05T07:38:19;21.77;;;6.63;;
1164;SDS011;571;50.930;6.926;2023-01-05T07:40:46;21.83;;;6.13;;
1164;SDS011;571;50.930;6.926;2023-01-05T07:43:14;17.20;;;5.53;;
1164;SDS011;571;50.930;6.926;2023-01-05T07:45:41;17.47;;;5.33;;
1164;SDS011;571;50.930;6.926;2023-01-05T07:48:08;27.27;;;5.63;;
1164;SDS011;571;50.930;6.926;2023-01-05T07:50:35;16.37;;;5.37;;
1164;SDS011;571;50.930;6.926;2023-01-05T07:53:01;20.53;;;5.70;;
1164;SDS011;571;50.930;6.926;2023-01-05T07:55:28;18.73;;;6.80;;
1164;SDS011;571;50.930;6.926;2023-01-05T07:57:55;22.70;;;6.50;;
1164;SDS011;571;50.930;6.926;2023-01-05T08:00:23;20.83;;;5.47;;
1164;SDS011;571;50.930;6.926;2023-01-05T08:02:49;19.20;;;6.10;;
1164;SDS011;571;50.930;6.926;2023-01-05T08:05:16;18.30;;;5.30;;
1164;SDS011;571;50.930;6.926;2023-01-05T08:07:43;15.70;;;5.50;;
1164;SDS011;571;50.930;6.926;2023-01-05T08:10:10;16.90;;;5.60;;
1164;SDS011;571;50.930;6.926;2023-01-05T08:12:59;19.50;;;5.90;;
1164;SDS011;571;50.930;6.926;2023-01-05T08:15:45;15.30;;;4.90;;
1164;SDS011;571;50.930;6.926;2023-01-05T08:18:12;19.87;;;5.00;;
1164;SDS011;571;50.930;6.926;2023-01-05T08:20:38;16.37;;;5.87;;
1164;SDS011;571;50.930;6.926;2023-01-05T08:23:05;19.97;;;5.20;;
1164;SDS011;571;50.930;6.926;2023-01-05T08:25:32;20.60;;;7.23;;
1164;SDS011;571;50.930;6.926;2023-01-05T08:27:59;16.90;;;5.30;;
1164;SDS011;571;50.930;6.926;2023-01-05T08:30:25;23.27;;;5.93;;
1164;SDS011;571;50.930;6.926;2023-01-05T08:32:54;27.47;;;6.30;;
1164;SDS011;571;50.930;6.926;2023-01-05T08:35:20;15.80;;;4.60;;
1164;SDS011;571;50.930;6.926;2023-01-05T08:37:47;22.23;;;5.83;;
1164;SDS011;571;50.930;6.926;2023-01-05T08:40:14;25.17;;;6.43;;
1164;SDS011;571;50.930;6.926;2023-01-05T08:42:41;21.67;;;5.50;;
1164;SDS011;571;50.930;6.926;2023-01-05T08:45:09;14.23;;;5.23;;
1164;SDS011;571;50.930;6.926;2023-01-05T08:47:36;17.10;;;5.33;;
1164;SDS011;571;50.930;6.926;2023-01-05T08:50:05;18.03;;;5.43;;
1164;SDS011;571;50.930;6.926;2023-01-05T08:52:33;21.97;;;6.10;;
1164;SDS011;571;50.930;6.926;2023-01-05T08:55:00;22.30;;;6.20;;
1164;SDS011;571;50.930;6.926;2023-01-05T08:57:26;14.30;;;5.10;;
1164;SDS011;571;50.930;6.926;2023-01-05T08:59:54;15.70;;;4.27;;
1164;SDS011;571;50.930;6.926;2023-01-05T09:02:21;16.60;;;6.27;;
1164;SDS011;571;50.930;6.926;2023-01-05T09:04:48;20.57;;;6.10;;
1164;SDS011;571;50.930;6.926;2023-01-05T09:07:16;22.73;;;7.00;;
1164;SDS011;571;50.930;6.926;2023-01-05T09:09:44;24.13;;;6.40;;
1164;SDS011;571;50.930;6.926;2023-01-05T09:12:10;17.27;;;5.70;;
1164;SDS011;571;50.930;6.926;2023-01-05T09:14:37;20.57;;;6.87;;
1164;SDS011;571;50.930;6.926;2023-01-05T09:17:04;14.90;;;5.60;;
1164;SDS011;571;50.930;6.926;2023-01-05T09:19:31;14.00;;;5.40;;
1164;SDS011;571;50.930;6.926;2023-01-05T09:21:58;23.57;;;5.47;;
1164;SDS011;571;50.930;6.926;2023-01-05T09:24:26;28.60;;;7.67;;
1164;SDS011;571;50.930;6.926;2023-01-05T09:26:53;18.27;;;5.67;;
1164;SDS011;571;50.930;6.926;2023-01-05T09:29:20;18.23;;;4.13;;
1164;SDS011;571;50.930;6.926;2023-01-05T09:31:46;16.10;;;5.70;;
1164;SDS011;571;50.930;6.926;2023-01-05T09:34:14;22.17;;;6.27;;
1164;SDS011;571;50.930;6.926;2023-01-05T09:36:42;18.90;;;7.00;;
1164;SDS011;571;50.930;6.926;2023-01-05T09:39:08;13.73;;;5.47;;
1164;SDS011;571;50.930;6.926;2023-01-05T09:41:37;25.80;;;6.33;;
1164;SDS011;571;50.930;6.926;2023-01-05T09:44:11;22.27;;;5.37;;
1164;SDS011;571;50.930;6.926;2023-01-05T09:46:45;18.60;;;6.10;;
1164;SDS011;571;50.930;6.926;2023-01-05T09:49:17;21.37;;;5.43;;
1164;SDS011;571;50.930;6.926;2023-01-05T09:51:48;21.93;;;6.57;;
1164;SDS011;571;50.930;6.926;2023-01-05T09:54:19;25.47;;;6.60;;
1164;SDS011;571;50.930;6.926;2023-01-05T09:56:48;20.40;;;6.43;;
1164;SDS011;571;50.930;6.926;2023-01-05T09:59:17;27.30;;;7.10;;
1164;SDS011;571;50.930;6.926;2023-01-05T10:01:49;24.43;;;6.00;;
1164;SDS011;571;50.930;6.926;2023-01-05T10:04:17;18.33;;;5.17;;
1164;SDS011;571;50.930;6.926;2023-01-05T10:06:48;22.87;;;5.80;;
1164;SDS011;571;50.930;6.926;2023-01-05T10:09:18;20.27;;;7.00;;
1164;SDS011;571;50.930;6.926;2023-01-05T10:11:48;32.20;;;6.60;;
1164;SDS011;571;50.930;6.926;2023-01-05T10:14:39;21.03;;;6.97;;
1164;SDS011;571;50.930;6.926;2023-01-05T10:17:09;13.90;;;6.03;;
1164;SDS011;571;50.930;6.926;2023-01-05T10:19:39;23.80;;;6.57;;
1164;SDS011;571;50.930;6.926;2023-01-05T10:22:09;28.10;;;7.80;;
1164;SDS011;571;50.930;6.926;2023-01-05T10:24:50;22.33;;;7.47;;
1164;SDS011;571;50.930;6.926;2023-01-05T10:27:25;13.17;;;4.80;;
1164;SDS011;571;50.930;6.926;2023-01-05T10:29:58;27.03;;;6.83;;
1164;SDS011;571;50.930;6.926;2023-01-05T10:32:31;16.03;;;4.50;;
1164;SDS011;571;50.930;6.926;2023-01-05T10:35:09;20.93;;;6.60;;
1164;SDS011;571;50.930;6.926;2023-01-05T10:37:59;23.97;;;6.40;;
1164;SDS011;571;50.930;6.926;2023-01-05T10:40:41;22.63;;;5.80;;
1164;SDS011;571;50.930;6.926;2023-01-05T10:43:26;20.20;;;6.60;;
1164;SDS011;571;50.930;6.926;2023-01-05T10:46:16;21.33;;;6.40;;
1164;SDS011;571;50.930;6.926;2023-01-05T10:48:45;19.67;;;5.90;;
1164;SDS011;571;50.930;6.926;2023-01-05T10:51:12;18.70;;;6.00;;
1164;SDS011;571;50.930;6.926;2023-01-05T10:53:39;24.37;;;6.10;;
1164;SDS011;571;50.930;6.926;2023-01-05T10:56:11;17.37;;;6.07;;
1164;SDS011;571;50.930;6.926;2023-01-05T10:58:41;16.60;;;6.10;;
1164;SDS011;571;50.930;6.926;2023-01-05T11:01:14;20.70;;;6.53;;
1164;SDS011;571;50.930;6.926;2023-01-05T11:03:47;19.10;;;6.53;;
1164;SDS011;571;50.930;6.926;2023-01-05T11:06:17;14.00;;;5.07;;
1164;SDS011;571;50.930;6.926;2023-01-05T11:08:46;18.80;;;5.90;;
1164;SDS011;571;50.930;6.926;2023-01-05T11:11:19;15.63;;;6.33;;
1164;SDS011;571;50.930;6.926;2023-01-05T11:13:49;21.60;;;5.90;;
1164;SDS011;571;50.930;6.926;2023-01-05T11:16:21;14.67;;;6.00;;
1164;SDS011;571;50.930;6.926;2023-01-05T11:18:51;19.90;;;6.23;;
1164;SDS011;571;50.930;6.926;2023-01-05T11:21:19;16.40;;;5.70;;
1164;SDS011;571;50.930;6.926;2023-01-05T11:23:48;18.23;;;6.37;;
1164;SDS011;571;50.930;6.926;2023-01-05T11:26:19;22.80;;;6.07;;
1164;SDS011;571;50.930;6.926;2023-01-05T11:28:59;23.43;;;6.50;;
1164;SDS011;571;50.930;6.926;2023-01-05T11:31:37;13.77;;;4.90;;
1164;SDS011;571;50.930;6.926;2023-01-05T11:34:11;19.20;;;5.93;;
1164;SDS011;571;50.930;6.926;2023-01-05T11:36:42;15.33;;;5.07;;
1164;SDS011;571;50.930;6.926;2023-01-05T11:39:17;12.47;;;5.17;;
1164;SDS011;571;50.930;6.926;2023-01-05T11:41:50;18.07;;;5.67;;
1164;SDS011;571;50.930;6.926;2023-01-05T11:44:20;15.20;;;5.30;;
1164;SDS011;571;50.930;6.926;2023-01-05T11:46:49;20.33;;;6.07;;
1164;SDS011;571;50.930;6.926;2023-01-05T11:49:16;16.83;;;5.70;;
1164;SDS011;571;50.930;6.926;2023-01-05T11:51:44;17.80;;;5.43;;
1164;SDS011;571;50.930;6.926;2023-01-05T11:54:30;15.93;;;4.70;;
1164;SDS011;571;50.930;6.926;2023-01-05T11:57:05;17.53;;;4.90;;
1164;SDS011;571;50.930;6.926;2023-01-05T11:59:42;17.60;;;6.50;;
1164;SDS011;571;50.930;6.926;2023-01-05T12:02:16;14.50;;;4.90;;
1164;SDS011;571;50.930;6.926;2023-01-05T12:05:12;20.13;;;5.27;;
1164;SDS011;571;50.930;6.926;2023-01-05T12:07:54;12.90;;;5.77;;
1164;SDS011;571;50.930;6.926;2023-01-05T12:10:29;12.50;;;4.80;;
1164;SDS011;571;50.930;6.926;2023-01-05T12:13:14;21.80;;;5.50;;
1164;SDS011;571;50.930;6.926;2023-01-05T12:15:59;19.33;;;6.50;;
1164;SDS011;571;50.930;6.926;2023-01-05T12:18:42;12.40;;;4.03;;
1164;SDS011;571;50.930;6.926;2023-01-05T12:21:32;17.30;;;5.80;;
1164;SDS011;571;50.930;6.926;2023-01-05T12:24:17;13.90;;;4.50;;
1164;SDS011;571;50.930;6.926;2023-01-05T12:30:48;11.00;;;4.30;;
1164;SDS011;571;50.930;6.926;2023-01-05T12:48:03;21.20;;;4.70;;
1164;SDS011;571;50.930;6.926;2023-01-05T12:54:21;21.80;;;4.80;;
1164;SDS011;571;50.930;6.926;2023-01-05T14:03:48;12.53;;;5.00;;
1164;SDS011;571;50.930;6.926;2023-01-05T14:07:02;20.60;;;4.80;;
1164;SDS011;571;50.930;6.926;2023-01-05T14:24:07;16.20;;;4.43;;
1164;SDS011;571;50.930;6.926;2023-01-05T14:44:20;19.63;;;4.90;;
1164;SDS011;571;50.930;6.926;2023-01-05T14:47:53;19.27;;;6.77;;
1164;SDS011;571;50.930;6.926;2023-01-05T14:51:40;17.13;;;5.27;;
1164;SDS011;571;50.930;6.926;2023-01-05T15:05:58;16.87;;;5.20;;
1164;SDS011;571;50.930;6.926;2023-01-05T15:22:58;19.23;;;5.43;;
1164;SDS011;571;50.930;6.926;2023-01-05T15:32:48;20.80;;;6.67;;
1164;SDS011;571;50.930;6.926;2023-01-05T16:11:42;18.40;;;5.10;;
1164;SDS011;571;50.930;6.926;2023-01-05T16:28:26;20.57;;;5.90;;
1164;SDS011;571;50.930;6.926;2023-01-05T16:31:37;16.00;;;6.30;;
1164;SDS011;571;50.930;6.926;2023-01-05T16:36:07;20.70;;;6.47;;
1164;SDS011;571;50.930;6.926;2023-01-05T16:38:24;20.37;;;6.50;;
1164;SDS011;571;50.930;6.926;2023-01-05T16:44:49;17.53;;;5.53;;
1164;SDS011;571;50.930;6.926;2023-01-05T16:48:08;24.30;;;7.47;;
1164;SDS011;571;50.930;6.926;2023-01-05T16:51:37;16.30;;;5.60;;
1164;SDS011;571;50.930;6.926;2023-01-05T16:57:41;13.27;;;6.07;;
1164;SDS011;571;50.930;6.926;2023-01-05T17:04:11;18.67;;;6.17;;
1164;SDS011;571;50.930;6.926;2023-01-05T17:07:19;19.03;;;5.43;;
1164;SDS011;571;50.930;6.926;2023-01-05T17:10:13;17.50;;;6.63;;
1164;SDS011;571;50.930;6.926;2023-01-05T17:33:18;23.73;;;7.30;;
1164;SDS011;571;50.930;6.926;2023-01-05T17:46:56;18.00;;;7.10;;
1164;SDS011;571;50.930;6.926;2023-01-05T18:03:40;15.90;;;6.60;;
1164;SDS011;571;50.930;6.926;2023-01-05T18:06:34;20.63;;;6.97;;
1164;SDS011;571;50.930;6.926;2023-01-05T18:28:44;24.23;;;9.50;;
1164;SDS011;571;50.930;6.926;2023-01-05T18:31:10;21.57;;;9.23;;
1164;SDS011;571;50.930;6.926;2023-01-05T18:33:38;22.77;;;7.70;;
1164;SDS011;571;50.930;6.926;2023-01-05T18:36:05;20.00;;;7.37;;
1164;SDS011;571;50.930;6.926;2023-01-05T18:38:33;22.43;;;9.73;;
1164;SDS011;571;50.930;6.926;2023-01-05T18:41:02;37.90;;;10.90;;
1164;SDS011;571;50.930;6.926;2023-01-05T18:43:30;16.70;;;8.20;;
1164;SDS011;571;50.930;6.926;2023-01-05T18:45:58;20.20;;;8.07;;
1164;SDS011;571;50.930;6.926;2023-01-05T18:48:26;16.87;;;7.80;;
1164;SDS011;571;50.930;6.926;2023-01-05T18:50:53;19.43;;;7.57;;
1164;SDS011;571;50.930;6.926;2023-01-05T18:53:20;19.07;;;8.00;;
1164;SDS011;571;50.930;6.926;2023-01-05T18:55:47;21.53;;;7.13;;
1164;SDS011;571;50.930;6.926;2023-01-05T18:58:14;19.03;;;8.40;;
1164;SDS011;571;50.930;6.926;2023-01-05T19:00:41;18.87;;;7.60;;
1164;SDS011;571;50.930;6.926;2023-01-05T19:03:10;13.83;;;6.77;;
1164;SDS011;571;50.930;6.926;2023-01-05T19:05:37;17.83;;;6.50;;
1164;SDS011;571;50.930;6.926;2023-01-05T19:08:05;12.87;;;7.13;;
1164;SDS011;571;50.930;6.926;2023-01-05T19:10:32;18.37;;;6.00;;
1164;SDS011;571;50.930;6.926;2023-01-05T19:12:59;13.43;;;6.80;;
1164;SDS011;571;50.930;6.926;2023-01-05T19:15:25;17.47;;;7.90;;
1164;SDS011;571;50.930;6.926;2023-01-05T19:17:52;12.83;;;7.37;;
1164;SDS011;571;50.930;6.926;2023-01-05T19:20:21;22.93;;;6.90;;
1164;SDS011;571;50.930;6.926;2023-01-05T19:22:48;13.50;;;5.53;;
1164;SDS011;571;50.930;6.926;2023-01-05T19:25:15;12.43;;;6.20;;
1164;SDS011;571;50.930;6.926;2023-01-05T19:27:43;16.63;;;6.53;;
1164;SDS011;571;50.930;6.926;2023-01-05T19:30:10;14.70;;;6.77;;
1164;SDS011;571;50.930;6.926;2023-01-05T19:32:38;18.37;;;8.13;;
1164;SDS011;571;50.930;6.926;2023-01-05T19:35:05;12.70;;;6.63;;
1164;SDS011;571;50.930;6.926;2023-01-05T19:37:33;10.57;;;6.40;;
1164;SDS011;571;50.930;6.926;2023-01-05T19:40:02;22.07;;;7.03;;
1164;SDS011;571;50.930;6.926;2023-01-05T19:42:29;18.60;;;7.63;;
1164;SDS011;571;50.930;6.926;2023-01-05T19:44:56;16.97;;;6.20;;
1164;SDS011;571;50.930;6.926;2023-01-05T19:47:23;20.20;;;7.80;;
1164;SDS011;571;50.930;6.926;2023-01-05T19:49:50;13.43;;;7.07;;
1164;SDS011;571;50.930;6.926;2023-01-05T19:52:17;22.27;;;8.50;;
1164;SDS011;571;50.930;6.926;2023-01-05T19:54:45;11.63;;;7.20;;
1164;SDS011;571;50.930;6.926;2023-01-05T19:57:12;21.07;;;6.97;;
1164;SDS011;571;50.930;6.926;2023-01-05T19:59:39;15.87;;;6.83;;
1164;SDS011;571;50.930;6.926;2023-01-05T20:02:06;15.97;;;8.07;;
1164;SDS011;571;50.930;6.926;2023-01-05T20:04:33;24.10;;;7.13;;
1164;SDS011;571;50.930;6.926;2023-01-05T20:07:00;16.60;;;7.27;;
1164;SDS011;571;50.930;6.926;2023-01-05T20:09:27;28.63;;;9.27;;
1164;SDS011;571;50.930;6.926;2023-01-05T20:11:55;14.67;;;7.20;;
1164;SDS011;571;50.930;6.926;2023-01-05T20:14:22;16.00;;;7.33;;
1164;SDS011;571;50.930;6.926;2023-01-05T20:16:51;12.40;;;5.93;;
1164;SDS011;571;50.930;6.926;2023-01-05T20:19:19;17.43;;;6.70;;
1164;SDS011;571;50.930;6.926;2023-01-05T20:21:47;11.67;;;6.63;;
1164;SDS011;571;50.930;6.926;2023-01-05T20:24:15;17.13;;;7.77;;
1164;SDS011;571;50.930;6.926;2023-01-05T20:26:43;15.30;;;9.23;;
1164;SDS011;571;50.930;6.926;2023-01-05T20:29:13;12.73;;;7.10;;
1164;SDS011;571;50.930;6.926;2023-01-05T20:31:41;10.60;;;7.50;;
1164;SDS011;571;50.930;6.926;2023-01-05T20:34:10;12.77;;;6.57;;
1164;SDS011;571;50.930;6.926;2023-01-05T20:36:40;14.77;;;6.87;;
1164;SDS011;571;50.930;6.926;2023-01-05T20:39:09;8.87;;;6.37;;
1164;SDS011;571;50.930;6.926;2023-01-05T20:41:38;13.83;;;6.10;;
1164;SDS011;571;50.930;6.926;2023-01-05T20:44:06;12.57;;;6.90;;
1164;SDS011;571;50.930;6.926;2023-01-05T20:46:36;10.50;;;5.60;;
1164;SDS011;571;50.930;6.926;2023-01-05T20:49:04;8.00;;;5.40;;
1164;SDS011;571;50.930;6.926;2023-01-05T20:51:31;11.10;;;6.70;;
1164;SDS011;571;50.930;6.926;2023-01-05T20:53:59;9.70;;;5.47;;
1164;SDS011;571;50.930;6.926;2023-01-05T20:56:27;7.90;;;4.63;;
1164;SDS011;571;50.930;6.926;2023-01-05T20:58:56;6.50;;;4.90;;
1164;SDS011;571;50.930;6.926;2023-01-05T21:01:24;9.30;;;5.50;;
1164;SDS011;571;50.930;6.926;2023-01-05T21:03:52;9.70;;;5.37;;
1164;SDS011;571;50.930;6.926;2023-01-05T21:06:19;5.87;;;4.30;;
1164;SDS011;571;50.930;6.926;2023-01-05T21:08:46;9.00;;;4.67;;
1164;SDS011;571;50.930;6.926;2023-01-05T21:11:15;5.60;;;4.23;;
1164;SDS011;571;50.930;6.926;2023-01-05T21:13:43;7.70;;;4.80;;
1164;SDS011;571;50.930;6.926;2023-01-05T21:16:13;9.67;;;5.17;;
1164;SDS011;571;50.930;6.926;2023-01-05T21:18:41;5.73;;;4.50;;
1164;SDS011;571;50.930;6.926;2023-01-05T21:21:09;8.30;;;4.40;;
1164;SDS011;571;50.930;6.926;2023-01-05T21:23:36;7.80;;;5.20;;
1164;SDS011;571;50.930;6.926;2023-01-05T21:26:04;5.77;;;4.33;;
1164;SDS011;571;50.930;6.926;2023-01-05T21:28:32;6.17;;;5.57;;
1164;SDS011;571;50.930;6.926;2023-01-05T21:31:00;7.83;;;5.17;;
1164;SDS011;571;50.930;6.926;2023-01-05T21:33:28;5.80;;;4.17;;
1164;SDS011;571;50.930;6.926;2023-01-05T21:35:55;4.70;;;4.30;;
1164;SDS011;571;50.930;6.926;2023-01-05T21:38:23;5.90;;;5.30;;
1164;SDS011;571;50.930;6.926;2023-01-05T21:40:50;8.37;;;5.40;;
1164;SDS011;571;50.930;6.926;2023-01-05T21:43:16;6.47;;;4.73;;
1164;SDS011;571;50.930;6.926;2023-01-05T21:45:43;5.80;;;5.10;;
1164;SDS011;571;50.930;6.926;2023-01-05T21:48:10;5.13;;;4.63;;
1164;SDS011;571;50.930;6.926;2023-01-05T21:50:37;4.87;;;3.83;;
1164;SDS011;571;50.930;6.926;2023-01-05T21:53:23;5.00;;;4.47;;
1164;SDS011;571;50.930;6.926;2023-01-05T21:56:10;10.83;;;4.60;;
1164;SDS011;571;50.930;6.926;2023-01-05T21:58:51;6.07;;;5.17;;
1164;SDS011;571;50.930;6.926;2023-01-05T22:01:18;6.03;;;5.17;;
1164;SDS011;571;50.930;6.926;2023-01-05T22:03:45;5.50;;;4.03;;
1164;SDS011;571;50.930;6.926;2023-01-05T22:06:12;6.10;;;4.10;;
1164;SDS011;571;50.930;6.926;2023-01-05T22:08:40;7.00;;;5.00;;
1164;SDS011;571;50.930;6.926;2023-01-05T22:11:06;7.10;;;5.20;;
1164;SDS011;571;50.930;6.926;2023-01-05T22:13:34;4.90;;;4.40;;
1164;SDS011;571;50.930;6.926;2023-01-05T22:16:01;6.27;;;4.10;;
1164;SDS011;571;50.930;6.926;2023-01-05T22:18:28;6.30;;;5.03;;
1164;SDS011;571;50.930;6.926;2023-01-05T22:20:56;4.90;;;4.50;;
1164;SDS011;571;50.930;6.926;2023-01-05T22:23:24;4.73;;;4.00;;
1164;SDS011;571;50.930;6.926;2023-01-05T22:26:02;4.40;;;4.00;;
1164;SDS011;571;50.930;6.926;2023-01-05T22:28:30;4.67;;;3.80;;
1164;SDS011;571;50.930;6.926;2023-01-05T22:31:03;4.93;;;3.73;;
1164;SDS011;571;50.930;6.926;2023-01-05T22:33:31;4.07;;;3.67;;
1164;SDS011;571;50.930;6.926;2023-01-05T22:35:58;4.60;;;3.77;;
1164;SDS011;571;50.930;6.926;2023-01-05T22:38:26;4.53;;;4.13;;
1164;SDS011;571;50.930;6.926;2023-01-05T22:40:53;3.93;;;3.53;;
1164;SDS011;571;50.930;6.926;2023-01-05T22:43:22;4.57;;;3.33;;
1164;SDS011;571;50.930;6.926;2023-01-05T22:45:49;3.43;;;3.13;;
1164;SDS011;571;50.930;6.926;2023-01-05T22:48:17;4.73;;;4.10;;
1164;SDS011;571;50.930;6.926;2023-01-05T22:50:44;4.67;;;4.23;;
1164;SDS011;571;50.930;6.926;2023-01-05T22:53:14;3.80;;;3.50;;
1164;SDS011;571;50.930;6.926;2023-01-05T22:55:41;5.30;;;4.30;;
1164;SDS011;571;50.930;6.926;2023-01-05T22:58:09;4.90;;;4.20;;
